createdAt,value
2023-04-20T00:00:51.318Z,0.00
2023-04-20T00:01:51.352Z,0.00
2023-04-20T00:02:51.492Z,0.00
2023-04-20T00:03:51.534Z,0.00
2023-04-20T00:04:51.398Z,0.00
2023-04-20T00:05:51.377Z,0.00
2023-04-20T00:06:51.385Z,0.00
2023-04-20T00:07:51.395Z,0.00
2023-04-20T00:08:51.408Z,0.00
2023-04-20T00:09:51.428Z,0.00
2023-04-20T00:10:51.434Z,0.00
2023-04-20T00:11:51.451Z,0.00
2023-04-20T00:12:51.459Z,0.00
2023-04-20T00:13:51.467Z,0.00
2023-04-20T00:14:51.485Z,0.00
2023-04-20T00:15:51.495Z,0.00
2023-04-20T00:16:51.534Z,0.00
2023-04-20T00:17:51.585Z,0.00
2023-04-20T00:18:51.535Z,0.00
2023-04-20T00:19:51.534Z,0.00
2023-04-20T00:20:51.564Z,0.00
2023-04-20T00:21:51.560Z,0.00
2023-04-20T00:22:51.569Z,0.00
2023-04-20T00:23:51.581Z,0.00
2023-04-20T00:24:51.594Z,0.00
2023-04-20T00:25:51.609Z,0.00
2023-04-20T00:26:51.619Z,0.00
2023-04-20T00:27:51.630Z,0.00
2023-04-20T00:28:51.645Z,0.00
2023-04-20T00:29:51.651Z,0.00
2023-04-20T00:30:51.700Z,0.00
2023-04-20T00:31:51.674Z,0.00
2023-04-20T00:32:51.712Z,0.00
2023-04-20T00:33:51.701Z,0.00
2023-04-20T00:34:51.708Z,0.00
2023-04-20T00:35:51.715Z,0.00
2023-04-20T00:36:51.751Z,0.00
2023-04-20T00:37:51.740Z,0.00
2023-04-20T00:38:51.762Z,0.00
2023-04-20T00:39:51.769Z,0.00
2023-04-20T00:40:51.777Z,0.00
2023-04-20T00:41:51.790Z,0.00
2023-04-20T00:42:51.827Z,0.00
2023-04-20T00:43:51.815Z,0.00
2023-04-20T00:44:51.822Z,0.00
2023-04-20T00:45:51.860Z,0.00
2023-04-20T00:46:51.845Z,0.00
2023-04-20T00:47:51.908Z,0.00
2023-04-20T00:48:51.899Z,0.00
2023-04-20T00:49:51.881Z,0.00
2023-04-20T00:50:51.887Z,0.00
2023-04-20T00:51:51.903Z,0.00
2023-04-20T00:52:51.923Z,0.00
2023-04-20T00:53:51.929Z,0.00
2023-04-20T00:54:51.939Z,0.00
2023-04-20T00:55:51.949Z,0.00
2023-04-20T00:56:51.966Z,0.00
2023-04-20T00:57:51.974Z,0.00
2023-04-20T00:58:51.992Z,0.00
2023-04-20T00:59:51.997Z,0.00
2023-04-20T01:00:52.004Z,0.00
2023-04-20T01:01:52.097Z,0.00
2023-04-20T01:02:52.089Z,0.00
2023-04-20T01:03:52.165Z,0.00
2023-04-20T01:04:52.061Z,0.00
2023-04-20T01:05:52.069Z,0.00
2023-04-20T01:06:52.078Z,0.00
2023-04-20T01:07:52.092Z,0.00
2023-04-20T01:08:52.127Z,0.00
2023-04-20T01:09:52.113Z,0.00
2023-04-20T01:10:52.126Z,0.00
2023-04-20T01:11:52.137Z,0.00
2023-04-20T01:12:52.148Z,0.00
2023-04-20T01:13:52.159Z,0.00
2023-04-20T01:14:52.169Z,0.00
2023-04-20T01:15:52.217Z,0.00
2023-04-20T01:16:52.203Z,0.00
2023-04-20T01:17:52.312Z,0.00
2023-04-20T01:18:52.216Z,0.00
2023-04-20T01:19:52.227Z,0.00
2023-04-20T01:20:52.239Z,0.00
2023-04-20T01:21:52.249Z,0.00
2023-04-20T01:22:52.263Z,0.00
2023-04-20T01:23:52.297Z,0.00
2023-04-20T01:24:52.286Z,0.00
2023-04-20T01:25:52.297Z,0.00
2023-04-20T01:26:52.308Z,0.00
2023-04-20T01:27:52.323Z,0.00
2023-04-20T01:28:52.332Z,0.00
2023-04-20T01:29:52.349Z,0.00
2023-04-20T01:30:52.352Z,0.00
2023-04-20T01:31:52.474Z,0.00
2023-04-20T01:32:52.464Z,0.00
2023-04-20T01:33:52.405Z,0.00
2023-04-20T01:34:52.399Z,0.00
2023-04-20T01:35:52.408Z,0.00
2023-04-20T01:36:52.420Z,0.00
2023-04-20T01:37:52.432Z,0.00
2023-04-20T01:38:52.462Z,0.00
2023-04-20T01:39:52.497Z,0.00
2023-04-20T01:40:52.476Z,0.00
2023-04-20T01:41:52.474Z,0.00
2023-04-20T01:42:52.509Z,0.00
2023-04-20T01:43:52.517Z,0.00
2023-04-20T01:44:52.509Z,0.00
2023-04-20T01:45:52.527Z,0.00
2023-04-20T01:46:52.587Z,0.00
2023-04-20T01:47:52.593Z,0.00
2023-04-20T01:48:52.556Z,0.00
2023-04-20T01:49:52.568Z,0.00
2023-04-20T01:50:52.600Z,0.00
2023-04-20T01:51:52.589Z,0.00
2023-04-20T01:52:52.600Z,0.00
2023-04-20T01:53:52.618Z,0.00
2023-04-20T01:54:52.632Z,0.00
2023-04-20T01:55:52.653Z,0.00
2023-04-20T01:56:52.660Z,0.00
2023-04-20T01:57:52.670Z,0.00
2023-04-20T01:58:52.667Z,0.00
2023-04-20T01:59:52.675Z,0.00
2023-04-20T02:00:52.783Z,0.00
2023-04-20T02:01:52.738Z,0.00
2023-04-20T02:02:52.883Z,0.00
2023-04-20T02:03:53.005Z,0.00
2023-04-20T02:04:52.740Z,0.00
2023-04-20T02:05:52.744Z,0.00
2023-04-20T02:06:52.754Z,0.00
2023-04-20T02:07:52.770Z,0.00
2023-04-20T02:08:52.782Z,0.00
2023-04-20T02:09:52.789Z,0.00
2023-04-20T02:10:52.798Z,0.00
2023-04-20T02:11:52.806Z,0.00
2023-04-20T02:12:52.818Z,0.00
2023-04-20T02:13:52.829Z,0.00
2023-04-20T02:14:52.836Z,0.00
2023-04-20T02:15:52.857Z,0.00
2023-04-20T02:16:52.885Z,0.00
2023-04-20T02:17:53.013Z,0.00
2023-04-20T02:18:52.889Z,0.00
2023-04-20T02:19:52.901Z,0.00
2023-04-20T02:20:52.916Z,0.00
2023-04-20T02:21:52.919Z,0.00
2023-04-20T02:22:52.929Z,0.00
2023-04-20T02:23:52.940Z,0.00
2023-04-20T02:24:52.963Z,0.00
2023-04-20T02:25:52.973Z,0.00
2023-04-20T02:26:52.972Z,0.00
2023-04-20T02:27:52.979Z,0.00
2023-04-20T02:28:52.993Z,0.00
2023-04-20T02:29:53.006Z,0.00
2023-04-20T02:30:53.051Z,0.00
2023-04-20T02:31:53.025Z,0.00
2023-04-20T02:32:53.118Z,0.00
2023-04-20T02:33:53.048Z,0.00
2023-04-20T02:34:53.063Z,0.00
2023-04-20T02:35:53.073Z,0.00
2023-04-20T02:36:53.086Z,0.00
2023-04-20T02:37:53.097Z,0.00
2023-04-20T02:38:53.106Z,0.00
2023-04-20T02:39:53.127Z,0.00
2023-04-20T02:40:53.128Z,0.00
2023-04-20T02:41:53.137Z,0.00
2023-04-20T02:42:53.148Z,0.00
2023-04-20T02:43:53.158Z,0.00
2023-04-20T02:44:53.175Z,0.00
2023-04-20T02:45:53.184Z,0.00
2023-04-20T02:46:53.265Z,0.00
2023-04-20T02:47:53.244Z,0.00
2023-04-20T02:48:53.230Z,0.00
2023-04-20T02:49:53.236Z,0.00
2023-04-20T02:50:53.243Z,0.00
2023-04-20T02:51:53.256Z,0.00
2023-04-20T02:52:53.270Z,0.00
2023-04-20T02:53:53.280Z,0.00
2023-04-20T02:54:53.298Z,0.00
2023-04-20T02:55:53.311Z,0.00
2023-04-20T02:56:53.750Z,0.00
2023-04-20T02:57:53.325Z,0.00
2023-04-20T02:58:53.335Z,0.00
2023-04-20T02:59:53.350Z,0.00
2023-04-20T03:00:53.361Z,0.00
2023-04-20T03:01:53.408Z,0.00
2023-04-20T03:02:53.489Z,0.00
2023-04-20T03:03:53.604Z,0.00
2023-04-20T03:04:53.557Z,0.00
2023-04-20T03:05:53.421Z,0.00
2023-04-20T03:06:53.430Z,0.00
2023-04-20T03:07:53.455Z,0.00
2023-04-20T03:08:53.454Z,0.00
2023-04-20T03:09:53.466Z,0.00
2023-04-20T03:10:53.479Z,0.00
2023-04-20T03:11:53.492Z,0.00
2023-04-20T03:12:53.504Z,0.00
2023-04-20T03:13:53.511Z,0.00
2023-04-20T03:14:53.523Z,0.00
2023-04-20T03:15:53.544Z,0.00
2023-04-20T03:16:53.569Z,0.00
2023-04-20T03:17:53.590Z,0.00
2023-04-20T03:18:53.582Z,0.00
2023-04-20T03:19:53.585Z,0.00
2023-04-20T03:20:53.608Z,0.00
2023-04-20T03:21:53.613Z,0.00
2023-04-20T03:22:53.616Z,0.00
2023-04-20T03:23:53.624Z,0.00
2023-04-20T03:24:53.783Z,0.00
2023-04-20T03:25:53.657Z,0.00
2023-04-20T03:26:53.661Z,0.00
2023-04-20T03:27:53.676Z,0.00
2023-04-20T03:28:53.689Z,0.00
2023-04-20T03:29:53.694Z,0.00
2023-04-20T03:30:53.706Z,0.00
2023-04-20T03:31:53.805Z,4.00
2023-04-20T03:32:53.799Z,0.00
2023-04-20T03:33:53.744Z,0.00
2023-04-20T03:34:53.753Z,4.00
2023-04-20T03:35:53.766Z,4.00
2023-04-20T03:36:53.777Z,4.00
2023-04-20T03:37:53.788Z,4.00
2023-04-20T03:38:53.796Z,8.00
2023-04-20T03:39:53.818Z,12.00
2023-04-20T03:40:53.828Z,12.00
2023-04-20T03:41:53.836Z,16.00
2023-04-20T03:42:53.850Z,16.00
2023-04-20T03:43:53.865Z,24.00
2023-04-20T03:44:53.867Z,24.00
2023-04-20T03:45:53.947Z,24.00
2023-04-20T03:46:53.893Z,28.00
2023-04-20T03:47:53.931Z,32.00
2023-04-20T03:48:53.914Z,36.00
2023-04-20T03:49:53.936Z,48.00
2023-04-20T03:50:53.941Z,52.00
2023-04-20T03:51:53.956Z,52.00
2023-04-20T03:52:53.965Z,52.00
2023-04-20T03:53:53.989Z,60.00
2023-04-20T03:54:54.015Z,76.00
2023-04-20T03:55:54.003Z,104.00
2023-04-20T03:56:54.026Z,128.00
2023-04-20T03:57:54.044Z,140.00
2023-04-20T03:58:54.035Z,136.00
2023-04-20T03:59:54.053Z,144.00
2023-04-20T04:00:54.061Z,160.00
2023-04-20T04:01:54.096Z,180.00
2023-04-20T04:02:54.268Z,208.00
2023-04-20T04:03:54.317Z,224.00
2023-04-20T04:04:54.212Z,260.00
2023-04-20T04:05:54.125Z,264.00
2023-04-20T04:06:54.124Z,224.00
2023-04-20T04:07:54.142Z,256.00
2023-04-20T04:08:54.164Z,272.00
2023-04-20T04:09:54.162Z,272.00
2023-04-20T04:10:54.178Z,280.00
2023-04-20T04:11:54.191Z,344.00
2023-04-20T04:12:54.199Z,404.00
2023-04-20T04:13:54.211Z,472.00
2023-04-20T04:14:54.223Z,552.00
2023-04-20T04:15:54.233Z,592.00
2023-04-20T04:16:54.285Z,580.00
2023-04-20T04:17:54.307Z,576.00
2023-04-20T04:18:54.275Z,604.00
2023-04-20T04:19:54.283Z,540.00
2023-04-20T04:20:54.297Z,508.00
2023-04-20T04:21:54.302Z,580.00
2023-04-20T04:22:54.323Z,580.00
2023-04-20T04:23:54.331Z,568.00
2023-04-20T04:24:54.344Z,632.00
2023-04-20T04:25:54.364Z,676.00
2023-04-20T04:26:54.366Z,752.00
2023-04-20T04:27:54.377Z,796.00
2023-04-20T04:28:54.387Z,880.00
2023-04-20T04:29:54.400Z,948.00
2023-04-20T04:30:54.424Z,1008.00
2023-04-20T04:31:54.618Z,964.00
2023-04-20T04:32:54.467Z,988.00
2023-04-20T04:33:54.452Z,1084.00
2023-04-20T04:34:54.465Z,1248.00
2023-04-20T04:35:54.485Z,1376.00
2023-04-20T04:36:54.486Z,1384.00
2023-04-20T04:37:54.500Z,1324.00
2023-04-20T04:38:54.509Z,1316.00
2023-04-20T04:39:54.528Z,1264.00
2023-04-20T04:40:54.534Z,1228.00
2023-04-20T04:41:54.555Z,1172.00
2023-04-20T04:42:54.558Z,1264.00
2023-04-20T04:43:54.579Z,1412.00
2023-04-20T04:44:54.581Z,1588.00
2023-04-20T04:45:54.591Z,1704.00
2023-04-20T04:46:54.606Z,1764.00
2023-04-20T04:47:54.633Z,1876.00
2023-04-20T04:48:54.634Z,2200.00
2023-04-20T04:49:54.640Z,2616.00
2023-04-20T04:50:54.656Z,2804.00
2023-04-20T04:51:54.667Z,2416.00
2023-04-20T04:52:54.681Z,1908.00
2023-04-20T04:53:54.689Z,1640.00
2023-04-20T04:54:54.704Z,1552.00
2023-04-20T04:55:54.715Z,1508.00
2023-04-20T04:56:54.734Z,1692.00
2023-04-20T04:57:54.741Z,1520.00
2023-04-20T04:58:54.750Z,1280.00
2023-04-20T04:59:54.769Z,1240.00
2023-04-20T05:00:54.782Z,1280.00
2023-04-20T05:01:54.842Z,1408.00
2023-04-20T05:02:54.931Z,1660.00
2023-04-20T05:03:55.110Z,2104.00
2023-04-20T05:04:54.921Z,2364.00
2023-04-20T05:05:54.843Z,2464.00
2023-04-20T05:06:54.855Z,2864.00
2023-04-20T05:07:54.865Z,3000.00
2023-04-20T05:08:54.874Z,2780.00
2023-04-20T05:09:54.882Z,2772.00
2023-04-20T05:10:54.894Z,2716.00
2023-04-20T05:11:54.907Z,2224.00
2023-04-20T05:12:54.917Z,2024.00
2023-04-20T05:13:54.929Z,2120.00
2023-04-20T05:14:54.945Z,2124.00
2023-04-20T05:15:54.994Z,1988.00
2023-04-20T05:16:54.967Z,1964.00
2023-04-20T05:17:55.004Z,2200.00
2023-04-20T05:18:54.997Z,2064.00
2023-04-20T05:19:55.006Z,1748.00
2023-04-20T05:20:55.027Z,1816.00
2023-04-20T05:21:55.028Z,1740.00
2023-04-20T05:22:55.040Z,2000.00
2023-04-20T05:23:55.054Z,2408.00
2023-04-20T05:24:55.065Z,3220.00
2023-04-20T05:25:55.081Z,3460.00
2023-04-20T05:26:55.092Z,3708.00
2023-04-20T05:27:55.103Z,3384.00
2023-04-20T05:28:55.114Z,2704.00
2023-04-20T05:29:55.133Z,2176.00
2023-04-20T05:30:55.158Z,2060.00
2023-04-20T05:31:55.211Z,2336.00
2023-04-20T05:32:55.223Z,3420.00
2023-04-20T05:33:55.180Z,4420.00
2023-04-20T05:34:55.189Z,4648.00
2023-04-20T05:35:55.201Z,4680.00
2023-04-20T05:36:55.215Z,4328.00
2023-04-20T05:37:55.226Z,4392.00
2023-04-20T05:38:55.240Z,4496.00
2023-04-20T05:39:55.254Z,4752.00
2023-04-20T05:40:55.275Z,5092.00
2023-04-20T05:41:55.282Z,5024.00
2023-04-20T05:42:55.298Z,4748.00
2023-04-20T05:43:55.301Z,5072.00
2023-04-20T05:44:55.323Z,5228.00
2023-04-20T05:45:55.384Z,4896.00
2023-04-20T05:46:55.341Z,4924.00
2023-04-20T05:47:55.400Z,5544.00
2023-04-20T05:48:55.377Z,5672.00
2023-04-20T05:49:55.383Z,5348.00
2023-04-20T05:50:55.398Z,5056.00
2023-04-20T05:51:55.403Z,5568.00
2023-04-20T05:52:55.431Z,6168.00
2023-04-20T05:53:55.455Z,6188.00
2023-04-20T05:54:55.455Z,5812.00
2023-04-20T05:55:55.467Z,5580.00
2023-04-20T05:56:55.470Z,5092.00
2023-04-20T05:57:55.494Z,5056.00
2023-04-20T05:58:55.500Z,5284.00
2023-04-20T05:59:55.510Z,5412.00
2023-04-20T06:00:55.526Z,5388.00
2023-04-20T06:01:55.558Z,5256.00
2023-04-20T06:02:55.724Z,5496.00
2023-04-20T06:03:55.745Z,6756.00
2023-04-20T06:04:55.615Z,8676.00
2023-04-20T06:05:55.594Z,9276.00
2023-04-20T06:06:55.602Z,9136.00
2023-04-20T06:07:55.617Z,8584.00
2023-04-20T06:08:55.632Z,7520.00
2023-04-20T06:09:55.645Z,6644.00
2023-04-20T06:10:55.663Z,6112.00
2023-04-20T06:11:55.668Z,5892.00
2023-04-20T06:12:55.683Z,6068.00
2023-04-20T06:13:55.698Z,6060.00
2023-04-20T06:14:55.711Z,6364.00
2023-04-20T06:15:55.767Z,6588.00
2023-04-20T06:16:55.736Z,6736.00
2023-04-20T06:17:55.780Z,6912.00
2023-04-20T06:18:55.763Z,6800.00
2023-04-20T06:19:55.776Z,6512.00
2023-04-20T06:20:55.789Z,6960.00
2023-04-20T06:21:55.815Z,6812.00
2023-04-20T06:22:55.824Z,6532.00
2023-04-20T06:23:55.835Z,6372.00
2023-04-20T06:24:55.842Z,5940.00
2023-04-20T06:25:55.862Z,5332.00
2023-04-20T06:26:55.869Z,5484.00
2023-04-20T06:27:55.890Z,5676.00
2023-04-20T06:28:55.901Z,5604.00
2023-04-20T06:29:55.908Z,5508.00
2023-04-20T06:30:55.949Z,5768.00
2023-04-20T06:31:55.938Z,5764.00
2023-04-20T06:32:55.970Z,5620.00
2023-04-20T06:33:55.976Z,5272.00
2023-04-20T06:34:55.979Z,5952.00
2023-04-20T06:35:55.989Z,6460.00
2023-04-20T06:36:56.002Z,6728.00
2023-04-20T06:37:56.018Z,6740.00
2023-04-20T06:38:56.034Z,7088.00
2023-04-20T06:39:56.044Z,7316.00
2023-04-20T06:40:56.058Z,7028.00
2023-04-20T06:41:56.070Z,6824.00
2023-04-20T06:42:56.089Z,7212.00
2023-04-20T06:43:56.100Z,7280.00
2023-04-20T06:44:56.112Z,7968.00
2023-04-20T06:45:56.129Z,8444.00
2023-04-20T06:46:56.201Z,8184.00
2023-04-20T06:47:56.196Z,7948.00
2023-04-20T06:48:56.177Z,8768.00
2023-04-20T06:49:56.179Z,9504.00
2023-04-20T06:50:56.209Z,10692.00
2023-04-20T06:51:56.204Z,12196.00
2023-04-20T06:52:56.216Z,13048.00
2023-04-20T06:53:56.236Z,12624.00
2023-04-20T06:54:56.245Z,11056.00
2023-04-20T06:55:56.261Z,10248.00
2023-04-20T06:56:56.272Z,10016.00
2023-04-20T06:57:56.297Z,10208.00
2023-04-20T06:58:56.305Z,9928.00
2023-04-20T06:59:56.313Z,9664.00
2023-04-20T07:00:56.328Z,10036.00
2023-04-20T07:01:56.376Z,9844.00
2023-04-20T07:02:56.516Z,10128.00
2023-04-20T07:03:56.630Z,9544.00
2023-04-20T07:04:56.481Z,8824.00
2023-04-20T07:05:56.403Z,9188.00
2023-04-20T07:06:56.412Z,10172.00
2023-04-20T07:07:56.428Z,13404.00
2023-04-20T07:08:56.442Z,16112.00
2023-04-20T07:09:56.461Z,17504.00
2023-04-20T07:10:56.469Z,15688.00
2023-04-20T07:11:56.516Z,13660.00
2023-04-20T07:12:56.513Z,12972.00
2023-04-20T07:13:56.524Z,11132.00
2023-04-20T07:14:56.542Z,10516.00
2023-04-20T07:15:56.578Z,12416.00
2023-04-20T07:16:56.598Z,14864.00
2023-04-20T07:17:56.654Z,14232.00
2023-04-20T07:18:56.601Z,14320.00
2023-04-20T07:19:56.607Z,15168.00
2023-04-20T07:20:56.618Z,13232.00
2023-04-20T07:21:56.630Z,11016.00
2023-04-20T07:22:56.646Z,10204.00
2023-04-20T07:23:56.667Z,9576.00
2023-04-20T07:24:56.693Z,10280.00
2023-04-20T07:25:56.727Z,11204.00
2023-04-20T07:26:56.717Z,9620.00
2023-04-20T07:27:56.721Z,8080.00
2023-04-20T07:28:56.746Z,8388.00
2023-04-20T07:29:56.759Z,9020.00
2023-04-20T07:30:56.801Z,8928.00
2023-04-20T07:31:56.813Z,7748.00
2023-04-20T07:32:56.840Z,9116.00
2023-04-20T07:33:56.948Z,10836.00
2023-04-20T07:34:56.831Z,11860.00
2023-04-20T07:35:56.845Z,12632.00
2023-04-20T07:36:56.862Z,12256.00
2023-04-20T07:37:56.877Z,14028.00
2023-04-20T07:38:56.901Z,18912.00
2023-04-20T07:39:56.909Z,19616.00
2023-04-20T07:40:56.935Z,18752.00
2023-04-20T07:41:56.946Z,15168.00
2023-04-20T07:42:56.957Z,13820.00
2023-04-20T07:43:56.977Z,13412.00
2023-04-20T07:44:56.984Z,13216.00
2023-04-20T07:45:57.064Z,12796.00
2023-04-20T07:46:57.013Z,13300.00
2023-04-20T07:47:57.067Z,14576.00
2023-04-20T07:48:57.053Z,13808.00
2023-04-20T07:49:57.062Z,13832.00
2023-04-20T07:50:57.079Z,13976.00
2023-04-20T07:52:06.035Z,14408.00
2023-04-20T07:52:57.108Z,15044.00
2023-04-20T07:53:57.138Z,14100.00
2023-04-20T07:54:57.144Z,14456.00
2023-04-20T07:55:57.161Z,16812.00
2023-04-20T07:56:57.186Z,17248.00
2023-04-20T07:57:57.190Z,15172.00
2023-04-20T07:58:57.208Z,12900.00
2023-04-20T07:59:57.218Z,11752.00
2023-04-20T08:00:57.245Z,11964.00
2023-04-20T08:01:57.292Z,13760.00
2023-04-20T08:02:57.353Z,15604.00
2023-04-20T08:03:57.553Z,15468.00
2023-04-20T08:04:57.462Z,13120.00
2023-04-20T08:05:57.445Z,10696.00
2023-04-20T08:06:57.327Z,10612.00
2023-04-20T08:07:57.350Z,13340.00
2023-04-20T08:08:57.361Z,15824.00
2023-04-20T08:09:57.384Z,16660.00
2023-04-20T08:10:57.399Z,16808.00
2023-04-20T08:11:57.615Z,17600.00
2023-04-20T08:12:57.437Z,18240.00
2023-04-20T08:13:58.360Z,18144.00
2023-04-20T08:14:57.458Z,18624.00
2023-04-20T08:15:57.514Z,19968.00
2023-04-20T08:16:57.505Z,22208.00
2023-04-20T08:17:57.510Z,23104.00
2023-04-20T08:18:57.521Z,22208.00
2023-04-20T08:19:57.536Z,22016.00
2023-04-20T08:20:57.552Z,23232.00
2023-04-20T08:21:57.567Z,24288.00
2023-04-20T08:22:57.584Z,27616.00
2023-04-20T08:23:57.600Z,26656.00
2023-04-20T08:24:57.622Z,23840.00
2023-04-20T08:25:57.636Z,22656.00
2023-04-20T08:26:57.649Z,23264.00
2023-04-20T08:27:57.668Z,24992.00
2023-04-20T08:28:57.683Z,28064.00
2023-04-20T08:29:57.705Z,27872.00
2023-04-20T08:30:57.735Z,26112.00
2023-04-20T08:31:57.778Z,25312.00
2023-04-20T08:32:57.778Z,22592.00
2023-04-20T08:33:57.769Z,22112.00
2023-04-20T08:34:57.785Z,20480.00
2023-04-20T08:35:57.807Z,18080.00
2023-04-20T08:36:57.833Z,16036.00
2023-04-20T08:37:57.839Z,15304.00
2023-04-20T08:38:57.861Z,13940.00
2023-04-20T08:39:57.885Z,12040.00
2023-04-20T08:40:57.895Z,8904.00
2023-04-20T08:41:57.910Z,8276.00
2023-04-20T08:42:57.929Z,8572.00
2023-04-20T08:43:57.945Z,8256.00
2023-04-20T08:44:57.967Z,7696.00
2023-04-20T08:45:57.987Z,7764.00
2023-04-20T08:46:58.206Z,8204.00
2023-04-20T08:47:58.064Z,7808.00
2023-04-20T08:48:58.033Z,6796.00
2023-04-20T08:49:58.047Z,7612.00
2023-04-20T08:50:58.067Z,9228.00
2023-04-20T08:51:58.084Z,10392.00
2023-04-20T08:52:58.103Z,10448.00
2023-04-20T08:53:58.117Z,8784.00
2023-04-20T08:54:58.210Z,7488.00
2023-04-20T08:55:58.153Z,7308.00
2023-04-20T08:56:58.169Z,7352.00
2023-04-20T08:57:58.183Z,7256.00
2023-04-20T08:58:58.197Z,6920.00
2023-04-20T08:59:58.212Z,6816.00
2023-04-20T09:00:58.230Z,7072.00
2023-04-20T09:01:58.315Z,7432.00
2023-04-20T09:02:58.443Z,7544.00
2023-04-20T09:03:58.467Z,7372.00
2023-04-20T09:04:58.454Z,7236.00
2023-04-20T09:05:58.309Z,7340.00
2023-04-20T09:06:58.324Z,7260.00
2023-04-20T09:07:58.340Z,7040.00
2023-04-20T09:08:58.358Z,7312.00
2023-04-20T09:09:58.384Z,7592.00
2023-04-20T09:10:58.391Z,7888.00
2023-04-20T09:11:58.413Z,7972.00
2023-04-20T09:12:58.422Z,8204.00
2023-04-20T09:13:58.446Z,9116.00
2023-04-20T09:14:58.451Z,9496.00
2023-04-20T09:15:58.476Z,8744.00
2023-04-20T09:16:58.485Z,8020.00
2023-04-20T09:17:58.543Z,7804.00
2023-04-20T09:18:58.519Z,7200.00
2023-04-20T09:19:58.526Z,6536.00
2023-04-20T09:20:58.542Z,6392.00
2023-04-20T09:21:58.561Z,6436.00
2023-04-20T09:22:58.576Z,6656.00
2023-04-20T09:23:58.591Z,7020.00
2023-04-20T09:24:58.600Z,7376.00
2023-04-20T09:25:58.634Z,7660.00
2023-04-20T09:26:58.650Z,7820.00
2023-04-20T09:27:58.651Z,7992.00
2023-04-20T09:28:58.670Z,8340.00
2023-04-20T09:29:58.715Z,8568.00
2023-04-20T09:30:58.703Z,8476.00
2023-04-20T09:31:58.767Z,8508.00
2023-04-20T09:32:58.746Z,9088.00
2023-04-20T09:33:58.741Z,10088.00
2023-04-20T09:34:58.767Z,11028.00
2023-04-20T09:35:58.766Z,11864.00
2023-04-20T09:36:58.786Z,12552.00
2023-04-20T09:37:58.797Z,12988.00
2023-04-20T09:38:58.815Z,13452.00
2023-04-20T09:39:58.827Z,14480.00
2023-04-20T09:40:58.847Z,15788.00
2023-04-20T09:41:58.857Z,16560.00
2023-04-20T09:42:58.880Z,17096.00
2023-04-20T09:43:58.893Z,17252.00
2023-04-20T09:44:58.905Z,16864.00
2023-04-20T09:45:58.973Z,17204.00
2023-04-20T09:46:58.937Z,18208.00
2023-04-20T09:47:58.999Z,18752.00
2023-04-20T09:48:58.965Z,17568.00
2023-04-20T09:50:04.454Z,16788.00
2023-04-20T09:50:59.002Z,18400.00
2023-04-20T09:51:59.017Z,20256.00
2023-04-20T09:52:59.027Z,20352.00
2023-04-20T09:53:59.050Z,19328.00
2023-04-20T09:54:59.055Z,21472.00
2023-04-20T09:55:59.072Z,25376.00
2023-04-20T09:56:59.087Z,27872.00
2023-04-20T09:57:59.107Z,27840.00
2023-04-20T09:58:59.121Z,27328.00
2023-04-20T09:59:59.142Z,29152.00
2023-04-20T10:00:59.164Z,28160.00
2023-04-20T10:01:59.295Z,27968.00
2023-04-20T10:02:59.329Z,31104.00
2023-04-20T10:03:59.558Z,30400.00
2023-04-20T10:04:59.225Z,27072.00
2023-04-20T10:05:59.246Z,25760.00
2023-04-20T10:06:59.252Z,27648.00
2023-04-20T10:07:59.266Z,29376.00
2023-04-20T10:08:59.286Z,28672.00
2023-04-20T10:09:59.304Z,28896.00
2023-04-20T10:10:59.322Z,28256.00
2023-04-20T10:11:59.616Z,27296.00
2023-04-20T10:12:59.360Z,28416.00
2023-04-20T10:13:59.374Z,31232.00
2023-04-20T10:14:59.394Z,30208.00
2023-04-20T10:15:59.437Z,29344.00
2023-04-20T10:16:59.513Z,28864.00
2023-04-20T10:17:59.529Z,26432.00
2023-04-20T10:18:59.508Z,28896.00
2023-04-20T10:19:59.488Z,25248.00
2023-04-20T10:20:59.501Z,23328.00
2023-04-20T10:21:59.521Z,22176.00
2023-04-20T10:22:59.544Z,20960.00
2023-04-20T10:23:59.558Z,24288.00
2023-04-20T10:24:59.616Z,21888.00
2023-04-20T10:25:59.602Z,18688.00
2023-04-20T10:26:59.644Z,19104.00
2023-04-20T10:27:59.654Z,26176.00
2023-04-20T10:28:59.656Z,29600.00
2023-04-20T10:29:59.676Z,27584.00
2023-04-20T10:30:59.793Z,28672.00
2023-04-20T10:31:59.705Z,26016.00
2023-04-20T10:32:59.758Z,23424.00
2023-04-20T10:33:59.754Z,24160.00
2023-04-20T10:34:59.762Z,26176.00
2023-04-20T10:35:59.778Z,26048.00
2023-04-20T10:36:59.801Z,33824.00
2023-04-20T10:37:59.821Z,43936.00
2023-04-20T10:38:59.837Z,44576.00
2023-04-20T10:39:59.878Z,44480.00
2023-04-20T10:40:59.877Z,28576.00
2023-04-20T10:41:59.895Z,21984.00
2023-04-20T10:42:59.912Z,22752.00
2023-04-20T10:43:59.941Z,28864.00
2023-04-20T10:44:59.956Z,45856.00
2023-04-20T10:46:00.065Z,46016.00
2023-04-20T10:46:59.992Z,38528.00
2023-04-20T10:48:00.064Z,26144.00
2023-04-20T10:49:00.037Z,19456.00
2023-04-20T10:50:00.063Z,17824.00
2023-04-20T10:51:00.073Z,20800.00
2023-04-20T10:52:00.096Z,18464.00
2023-04-20T10:53:00.162Z,19552.00
2023-04-20T10:54:00.136Z,20832.00
2023-04-20T10:55:00.155Z,23456.00
2023-04-20T10:56:00.200Z,26144.00
2023-04-20T10:57:00.198Z,22944.00
2023-04-20T10:58:00.215Z,26592.00
2023-04-20T10:59:02.292Z,23552.00
2023-04-20T11:00:00.283Z,24032.00
2023-04-20T11:01:00.269Z,23776.00
2023-04-20T11:02:00.389Z,24512.00
2023-04-20T11:03:00.393Z,24192.00
2023-04-20T11:04:00.384Z,24512.00
2023-04-20T11:05:00.412Z,24192.00
2023-04-20T11:06:00.378Z,24000.00
2023-04-20T11:07:00.396Z,24384.00
2023-04-20T11:08:00.415Z,25248.00
2023-04-20T11:09:00.432Z,27232.00
2023-04-20T11:10:00.460Z,27616.00
2023-04-20T11:11:00.472Z,29024.00
2023-04-20T11:12:00.491Z,29600.00
2023-04-20T11:13:00.516Z,30400.00
2023-04-20T11:14:00.534Z,30144.00
2023-04-20T11:15:00.599Z,30176.00
2023-04-20T11:16:00.610Z,29312.00
2023-04-20T11:17:00.624Z,29856.00
2023-04-20T11:18:00.704Z,31360.00
2023-04-20T11:19:00.642Z,29504.00
2023-04-20T11:20:00.651Z,30656.00
2023-04-20T11:21:00.671Z,25664.00
2023-04-20T11:22:00.694Z,25664.00
2023-04-20T11:23:00.716Z,25632.00
2023-04-20T11:24:00.738Z,25184.00
2023-04-20T11:25:00.751Z,21728.00
2023-04-20T11:26:00.780Z,19520.00
2023-04-20T11:27:00.793Z,18400.00
2023-04-20T11:28:00.813Z,15724.00
2023-04-20T11:29:00.881Z,11916.00
2023-04-20T11:30:00.849Z,10684.00
2023-04-20T11:31:00.874Z,10896.00
2023-04-20T11:32:00.986Z,11492.00
2023-04-20T11:33:01.046Z,12596.00
2023-04-20T11:34:00.949Z,12436.00
2023-04-20T11:35:06.392Z,12500.00
2023-04-20T11:36:01.008Z,9788.00
2023-04-20T11:37:00.990Z,8536.00
2023-04-20T11:38:01.013Z,9444.00
2023-04-20T11:39:01.027Z,9148.00
2023-04-20T11:40:01.059Z,10696.00
2023-04-20T11:41:01.071Z,12940.00
2023-04-20T11:42:01.090Z,12800.00
2023-04-20T11:43:01.110Z,13516.00
2023-04-20T11:44:01.126Z,12884.00
2023-04-20T11:45:01.145Z,11824.00
2023-04-20T11:46:01.225Z,13324.00
2023-04-20T11:47:01.182Z,13892.00
2023-04-20T11:48:01.227Z,11952.00
2023-04-20T11:49:01.221Z,9532.00
2023-04-20T11:50:01.237Z,9920.00
2023-04-20T11:51:01.257Z,13024.00
2023-04-20T11:52:01.282Z,15880.00
2023-04-20T11:53:01.293Z,17316.00
2023-04-20T11:54:01.318Z,18848.00
2023-04-20T11:55:01.333Z,19936.00
2023-04-20T11:56:01.358Z,17600.00
2023-04-20T11:57:01.383Z,18560.00
2023-04-20T11:58:01.383Z,19008.00
2023-04-20T11:59:01.411Z,20832.00
2023-04-20T12:00:01.434Z,23552.00
2023-04-20T12:01:01.455Z,25664.00
2023-04-20T12:02:01.567Z,31584.00
2023-04-20T12:03:01.574Z,24320.00
2023-04-20T12:04:01.864Z,27200.00
2023-04-20T12:05:01.601Z,35840.00
2023-04-20T12:06:01.549Z,23488.00
2023-04-20T12:07:01.569Z,27392.00
2023-04-20T12:08:01.585Z,27904.00
2023-04-20T12:09:01.596Z,22080.00
2023-04-20T12:10:01.631Z,20608.00
2023-04-20T12:11:01.665Z,17020.00
2023-04-20T12:12:01.655Z,16320.00
2023-04-20T12:13:01.676Z,16984.00
2023-04-20T12:14:01.707Z,20288.00
2023-04-20T12:15:01.773Z,20384.00
2023-04-20T12:16:01.838Z,23872.00
2023-04-20T12:17:01.762Z,62464.00
2023-04-20T12:18:01.897Z,48288.00
2023-04-20T12:19:01.805Z,33920.00
2023-04-20T12:20:01.832Z,24288.00